createdAt,value
2023-03-11T00:01:27.975Z,9.93
2023-03-11T00:03:58.329Z,9.85
2023-03-11T00:06:27.509Z,8.45
2023-03-11T00:08:56.481Z,11.95
2023-03-11T00:11:25.485Z,9.52
2023-03-11T00:13:54.494Z,9.75
2023-03-11T00:16:23.467Z,10.63
2023-03-11T00:18:53.449Z,9.25
2023-03-11T00:21:23.889Z,8.43
2023-03-11T00:23:52.778Z,9.07
2023-03-11T00:26:21.735Z,10.40
2023-03-11T00:28:50.613Z,9.45
2023-03-11T00:31:19.663Z,10.15
2023-03-11T00:33:48.739Z,11.15
2023-03-11T00:36:25.670Z,9.20
2023-03-11T00:38:54.677Z,8.50
2023-03-11T00:41:23.628Z,9.13
2023-03-11T00:43:53.138Z,9.20
2023-03-11T00:46:22.392Z,9.18
2023-03-11T00:48:51.957Z,11.00
2023-03-11T00:51:20.944Z,10.27
2023-03-11T00:53:51.276Z,9.77
2023-03-11T00:56:20.725Z,9.57
2023-03-11T00:58:50.348Z,11.52
2023-03-11T01:01:21.212Z,11.77
2023-03-11T01:03:50.697Z,11.40
2023-03-11T01:06:19.888Z,10.32
2023-03-11T01:08:50.174Z,9.75
2023-03-11T01:11:19.126Z,10.15
2023-03-11T01:13:48.263Z,10.07
2023-03-11T01:16:17.381Z,9.25
2023-03-11T01:18:46.305Z,9.35
2023-03-11T01:21:15.337Z,10.35
2023-03-11T01:23:44.567Z,10.57
2023-03-11T01:26:15.676Z,10.52
2023-03-11T01:28:44.778Z,10.55
2023-03-11T01:31:13.919Z,13.63
2023-03-11T01:33:42.865Z,13.10
2023-03-11T01:36:11.834Z,13.65
2023-03-11T01:38:40.843Z,13.50
2023-03-11T01:41:11.406Z,13.63
2023-03-11T01:43:50.245Z,13.23
2023-03-11T01:46:25.072Z,15.00
2023-03-11T01:48:56.218Z,15.10
2023-03-11T01:51:30.195Z,14.75
2023-03-11T01:54:03.116Z,15.43
2023-03-11T01:56:33.310Z,14.43
2023-03-11T01:59:04.620Z,16.65
2023-03-11T02:01:34.990Z,17.00
2023-03-11T02:04:05.394Z,15.52
2023-03-11T02:06:35.273Z,14.85
2023-03-11T02:09:04.707Z,15.23
2023-03-11T02:11:33.796Z,15.13
2023-03-11T02:14:08.074Z,14.32
2023-03-11T02:16:37.898Z,15.73
2023-03-11T02:19:18.738Z,14.43
2023-03-11T02:21:48.333Z,15.32
2023-03-11T02:24:22.998Z,15.93
2023-03-11T02:26:56.620Z,16.10
2023-03-11T02:29:27.734Z,15.05
2023-03-11T02:31:58.228Z,16.15
2023-03-11T02:34:29.667Z,15.25
2023-03-11T02:36:59.279Z,17.00
2023-03-11T02:39:32.821Z,15.35
2023-03-11T02:42:06.993Z,14.25
2023-03-11T02:44:36.313Z,14.30
2023-03-11T02:47:05.990Z,14.10
2023-03-11T02:49:37.055Z,13.95
2023-03-11T02:52:06.888Z,15.15
2023-03-11T02:54:35.817Z,14.13
2023-03-11T02:57:06.198Z,12.32
2023-03-11T02:59:35.944Z,12.82
2023-03-11T03:02:04.978Z,14.52
2023-03-11T03:04:34.863Z,12.65
2023-03-11T03:07:04.239Z,12.20
2023-03-11T03:09:34.364Z,13.60
2023-03-11T03:12:03.666Z,10.70
2023-03-11T03:14:36.111Z,9.55
2023-03-11T03:17:05.391Z,9.10
2023-03-11T03:19:34.364Z,9.80
2023-03-11T03:22:03.398Z,8.50
2023-03-11T03:24:32.581Z,8.77
2023-03-11T03:27:01.672Z,7.82
2023-03-11T03:29:30.989Z,6.55
2023-03-11T03:32:01.363Z,6.97
2023-03-11T03:34:30.420Z,7.78
2023-03-11T03:36:59.360Z,6.88
2023-03-11T03:39:30.511Z,7.22
2023-03-11T03:42:00.338Z,4.38
2023-03-11T03:44:32.056Z,4.22
2023-03-11T03:47:03.050Z,5.07
2023-03-11T03:49:32.493Z,4.35
2023-03-11T03:52:01.387Z,4.55
2023-03-11T03:54:33.765Z,4.93
2023-03-11T03:57:04.947Z,4.53
2023-03-11T03:59:37.467Z,4.70
2023-03-11T04:02:08.068Z,3.95
2023-03-11T04:04:37.172Z,4.03
2023-03-11T04:07:07.040Z,3.70
2023-03-11T04:09:39.931Z,3.83
2023-03-11T04:12:09.804Z,3.95
2023-03-11T04:14:38.847Z,4.07
2023-03-11T04:17:10.376Z,3.97
2023-03-11T04:19:39.644Z,3.78
2023-03-11T04:22:09.268Z,4.43
2023-03-11T04:24:38.386Z,4.07
2023-03-11T04:27:07.664Z,4.15
2023-03-11T04:29:37.504Z,3.70
2023-03-11T04:32:09.028Z,3.90
2023-03-11T04:34:39.416Z,3.20
2023-03-11T04:37:08.603Z,3.50
2023-03-11T04:39:39.055Z,4.03
2023-03-11T04:42:08.695Z,4.13
2023-03-11T04:44:38.942Z,4.10
2023-03-11T04:47:09.820Z,4.15
2023-03-11T04:49:39.440Z,4.53
2023-03-11T04:52:08.603Z,4.57
2023-03-11T04:54:38.205Z,4.22
2023-03-11T04:57:08.190Z,3.90
2023-03-11T04:59:38.581Z,4.97
2023-03-11T05:02:11.728Z,3.45
2023-03-11T05:04:45.959Z,3.65
2023-03-11T05:07:17.233Z,3.88
2023-03-11T05:09:47.557Z,3.78
2023-03-11T05:12:16.628Z,3.70
2023-03-11T05:14:50.481Z,3.50
2023-03-11T05:17:21.156Z,3.95
2023-03-11T05:19:51.799Z,3.90
2023-03-11T05:22:26.109Z,4.15
2023-03-11T05:24:55.689Z,4.10
2023-03-11T05:27:25.668Z,3.60
2023-03-11T05:29:57.912Z,3.38
2023-03-11T05:32:30.604Z,3.15
2023-03-11T05:34:59.733Z,3.90
2023-03-11T05:37:29.035Z,4.00
2023-03-11T05:39:58.794Z,4.03
2023-03-11T05:42:27.727Z,3.90
2023-03-11T05:44:58.576Z,3.88
2023-03-11T05:47:28.102Z,4.38
2023-03-11T05:50:00.052Z,3.50
2023-03-11T05:52:34.011Z,3.70
2023-03-11T05:55:03.076Z,4.18
2023-03-11T05:57:33.507Z,4.03
2023-03-11T06:00:04.357Z,3.95
2023-03-11T06:02:43.256Z,4.25
2023-03-11T06:05:17.770Z,3.85
2023-03-11T06:07:48.894Z,3.63
2023-03-11T06:10:18.764Z,4.35
2023-03-11T06:12:48.572Z,3.42
2023-03-11T06:15:25.931Z,3.50
2023-03-11T06:17:55.750Z,4.00
2023-03-11T06:20:26.524Z,3.65
2023-03-11T06:22:55.905Z,2.88
2023-03-11T06:25:26.733Z,3.47
2023-03-11T06:27:56.766Z,3.42
2023-03-11T06:30:27.084Z,3.40
2023-03-11T06:33:08.241Z,3.90
2023-03-11T06:35:38.677Z,3.38
2023-03-11T06:38:07.880Z,3.33
2023-03-11T06:40:38.151Z,3.50
2023-03-11T06:43:07.449Z,2.78
2023-03-11T06:45:40.695Z,3.47
2023-03-11T06:48:10.762Z,2.85
2023-03-11T06:50:44.566Z,3.80
2023-03-11T06:53:13.685Z,4.03
2023-03-11T06:55:42.775Z,3.63
2023-03-11T06:58:11.981Z,3.03
2023-03-11T07:00:42.706Z,3.70
2023-03-11T07:03:12.821Z,3.35
2023-03-11T07:05:42.033Z,3.35
2023-03-11T07:08:14.674Z,3.28
2023-03-11T07:10:43.736Z,3.60
2023-03-11T07:13:12.729Z,3.42
2023-03-11T07:15:41.773Z,3.60
2023-03-11T07:18:10.833Z,3.75
2023-03-11T07:20:39.989Z,4.07
2023-03-11T07:23:08.932Z,3.63
2023-03-11T07:25:39.331Z,3.88
2023-03-11T07:28:08.400Z,3.58
2023-03-11T07:30:39.958Z,3.80
2023-03-11T07:33:10.255Z,3.83
2023-03-11T07:35:39.398Z,3.67
2023-03-11T07:38:08.609Z,4.35
2023-03-11T07:40:39.196Z,4.00
2023-03-11T07:43:09.237Z,4.15
2023-03-11T07:45:38.493Z,4.20
2023-03-11T07:48:07.991Z,3.85
2023-03-11T07:50:37.116Z,4.35
2023-03-11T07:53:06.481Z,3.90
2023-03-11T07:55:36.203Z,3.45
2023-03-11T07:58:06.760Z,3.80
2023-03-11T08:00:35.752Z,3.85
2023-03-11T08:03:04.757Z,4.32
2023-03-11T08:05:35.172Z,3.15
2023-03-11T08:08:04.204Z,4.13
2023-03-11T08:10:33.876Z,3.88
2023-03-11T08:13:02.802Z,4.28
2023-03-11T08:15:33.569Z,4.18
2023-03-11T08:18:02.524Z,4.15
2023-03-11T08:20:31.754Z,3.85
2023-03-11T08:23:00.812Z,4.30
2023-03-11T08:25:29.749Z,4.63
2023-03-11T08:27:59.009Z,3.55
2023-03-11T08:30:29.410Z,3.83
2023-03-11T08:33:00.032Z,4.00
2023-03-11T08:35:29.053Z,3.92
2023-03-11T08:37:58.370Z,4.45
2023-03-11T08:40:27.494Z,4.85
2023-03-11T08:42:57.472Z,4.82
2023-03-11T08:45:26.543Z,4.80
2023-03-11T08:47:55.544Z,4.55
2023-03-11T08:50:26.146Z,4.22
2023-03-11T08:52:56.581Z,3.72
2023-03-11T08:55:27.889Z,3.47
2023-03-11T08:57:57.743Z,4.28
2023-03-11T09:00:26.968Z,5.38
2023-03-11T09:02:56.931Z,4.28
2023-03-11T09:05:27.954Z,3.67
2023-03-11T09:07:57.200Z,3.30
2023-03-11T09:10:29.103Z,4.10
2023-03-11T09:12:58.198Z,3.60
2023-03-11T09:15:27.701Z,3.67
2023-03-11T09:17:57.023Z,3.83
2023-03-11T09:20:27.643Z,3.67
2023-03-11T09:22:56.662Z,3.40
2023-03-11T09:25:26.545Z,3.60
2023-03-11T09:27:56.375Z,3.75
2023-03-11T09:30:25.683Z,4.47
2023-03-11T09:32:55.642Z,3.83
2023-03-11T09:35:25.038Z,4.15
2023-03-11T09:37:55.625Z,3.97
2023-03-11T09:40:29.796Z,4.13
2023-03-11T09:43:09.167Z,3.58
2023-03-11T09:45:47.868Z,3.38
2023-03-11T09:48:23.100Z,3.35
2023-03-11T09:50:55.275Z,3.50
2023-03-11T09:53:36.447Z,3.58
2023-03-11T09:56:08.556Z,3.90
2023-03-11T09:58:41.650Z,3.95
2023-03-11T10:01:19.734Z,3.33
2023-03-11T10:03:49.958Z,3.17
2023-03-11T10:06:24.610Z,3.35
2023-03-11T10:09:02.398Z,3.08
2023-03-11T10:11:53.019Z,3.72
2023-03-11T10:14:37.504Z,3.55
2023-03-11T10:17:15.914Z,3.83
2023-03-11T10:19:50.292Z,3.90
2023-03-11T10:22:25.747Z,3.43
2023-03-11T10:25:05.625Z,3.88
2023-03-11T10:27:47.322Z,4.50
2023-03-11T10:30:25.652Z,4.40
2023-03-11T10:33:12.660Z,4.05
2023-03-11T10:35:44.934Z,3.20
2023-03-11T10:38:18.091Z,4.85
2023-03-11T10:40:52.518Z,4.35
2023-03-11T10:43:30.127Z,4.30
2023-03-11T10:46:00.760Z,3.35
2023-03-11T10:48:32.834Z,3.38
2023-03-11T10:51:05.140Z,2.92
2023-03-11T10:53:41.774Z,2.58
2023-03-11T10:56:27.413Z,2.83
2023-03-11T11:01:26.979Z,3.13
2023-03-11T11:04:01.644Z,3.10
2023-03-11T11:06:36.232Z,3.53
2023-03-11T11:09:22.454Z,2.80
2023-03-11T11:12:17.868Z,3.05
2023-03-11T11:14:49.098Z,3.72
2023-03-11T11:17:20.695Z,3.20
2023-03-11T11:19:54.063Z,3.10
2023-03-11T11:22:24.545Z,3.08
2023-03-11T11:24:55.502Z,2.88
2023-03-11T11:27:28.161Z,3.58
2023-03-11T11:30:17.119Z,3.88
2023-03-11T11:32:46.263Z,3.60
2023-03-11T11:35:19.005Z,3.33
2023-03-11T11:37:50.086Z,4.22
2023-03-11T11:40:26.343Z,3.00
2023-03-11T11:43:00.508Z,4.05
2023-03-11T11:45:36.760Z,3.55
2023-03-11T11:48:12.688Z,3.97
2023-03-11T11:50:45.859Z,3.33
2023-03-11T11:53:26.437Z,3.95
2023-03-11T11:55:55.862Z,3.35
2023-03-11T11:58:26.600Z,2.92
2023-03-11T12:01:06.293Z,4.82
2023-03-11T12:03:50.968Z,3.00
2023-03-11T12:06:28.429Z,3.60
2023-03-11T12:09:10.484Z,2.97
2023-03-11T12:11:45.293Z,3.85
2023-03-11T12:14:21.697Z,2.95
2023-03-11T12:16:58.750Z,2.85
2023-03-11T12:19:43.054Z,2.83
2023-03-11T12:22:43.022Z,3.28
2023-03-11T12:25:26.689Z,3.00
2023-03-11T12:28:09.254Z,3.20
2023-03-11T12:30:50.269Z,3.83
2023-03-11T12:33:27.103Z,3.38
2023-03-11T12:35:59.485Z,3.25
2023-03-11T12:38:34.478Z,4.05
2023-03-11T12:41:09.095Z,2.90
2023-03-11T12:44:05.667Z,2.85
2023-03-11T12:47:03.960Z,3.15
2023-03-11T12:49:34.206Z,3.50
2023-03-11T12:52:20.600Z,3.35
2023-03-11T12:54:52.516Z,3.25
2023-03-11T12:57:38.860Z,3.00
2023-03-11T13:00:24.175Z,3.67
2023-03-11T13:03:36.401Z,2.97
2023-03-11T13:06:22.502Z,3.10
2023-03-11T13:08:54.926Z,2.42
2023-03-11T13:11:44.720Z,3.25
2023-03-11T13:14:28.664Z,2.70
2023-03-11T13:16:59.066Z,3.40
2023-03-11T13:19:51.462Z,3.50
2023-03-11T13:22:43.714Z,3.05
2023-03-11T13:25:30.131Z,3.42
2023-03-11T13:28:12.557Z,3.10
2023-03-11T13:30:50.586Z,3.33
2023-03-11T13:33:31.180Z,3.10
2023-03-11T13:36:16.126Z,2.67
2023-03-11T13:39:02.215Z,2.67
2023-03-11T13:41:34.329Z,3.05
2023-03-11T13:44:16.185Z,2.83
2023-03-11T13:46:49.956Z,2.88
2023-03-11T13:49:29.936Z,3.40
2023-03-11T13:52:03.200Z,3.17
2023-03-11T13:54:39.252Z,3.58
2023-03-11T13:57:23.250Z,3.08
2023-03-11T13:59:56.403Z,3.60
2023-03-11T14:02:27.711Z,3.50
2023-03-11T14:05:04.546Z,3.50
2023-03-11T14:07:38.607Z,3.08
2023-03-11T14:10:27.867Z,3.30
2023-03-11T14:13:18.000Z,3.83
2023-03-11T14:15:56.068Z,3.08
2023-03-11T14:18:34.019Z,3.30
2023-03-11T14:21:04.934Z,3.10
2023-03-11T14:23:41.125Z,3.15
2023-03-11T14:26:15.481Z,3.40
2023-03-11T14:28:47.817Z,3.13
2023-03-11T14:31:31.497Z,3.53
2023-03-11T14:34:04.680Z,3.97
2023-03-11T14:36:43.696Z,2.88
2023-03-11T14:39:28.921Z,3.88
2023-03-11T14:42:03.167Z,3.92
2023-03-11T14:44:34.590Z,3.60
2023-03-11T14:47:12.699Z,3.80
2023-03-11T14:49:43.389Z,3.30
2023-03-11T14:52:20.094Z,3.65
2023-03-11T14:54:53.604Z,6.15
2023-03-11T14:57:28.813Z,3.33
2023-03-11T15:00:01.373Z,3.38
2023-03-11T15:02:51.937Z,2.80
2023-03-11T15:05:27.004Z,3.92
2023-03-11T15:08:01.848Z,3.42
2023-03-11T15:10:32.629Z,3.17
2023-03-11T15:13:16.354Z,3.80
2023-03-11T15:15:47.276Z,6.80
2023-03-11T15:18:23.937Z,3.85
2023-03-11T15:21:15.426Z,4.05
2023-03-11T15:23:47.587Z,3.20
2023-03-11T15:26:23.748Z,3.95
2023-03-11T15:28:58.390Z,3.55
2023-03-11T15:31:31.726Z,3.70
2023-03-11T15:34:25.307Z,3.50
2023-03-11T15:37:01.576Z,3.42
2023-03-11T15:39:44.288Z,3.42
2023-03-11T15:42:19.490Z,3.70
2023-03-11T15:45:05.999Z,3.63
2023-03-11T15:47:36.151Z,3.70
2023-03-11T15:50:24.167Z,3.13
2023-03-11T15:52:55.795Z,3.65
2023-03-11T15:55:25.502Z,3.38
2023-03-11T15:58:02.479Z,3.50
2023-03-11T16:00:33.153Z,3.45
2023-03-11T16:03:02.932Z,3.42
2023-03-11T16:05:32.062Z,2.90
2023-03-11T16:08:01.055Z,3.25
2023-03-11T16:10:30.144Z,3.05
2023-03-11T16:13:00.709Z,3.15
2023-03-11T16:15:31.999Z,3.72
2023-03-11T16:18:02.713Z,3.90
2023-03-11T16:20:34.718Z,3.22
2023-03-11T16:23:04.701Z,3.50
2023-03-11T16:25:37.994Z,3.30
2023-03-11T16:28:09.396Z,3.70
2023-03-11T16:30:38.551Z,3.15
2023-03-11T16:33:07.900Z,3.50
2023-03-11T16:35:37.304Z,2.85
2023-03-11T16:38:08.219Z,3.53
2023-03-11T16:40:38.018Z,3.47
2023-03-11T16:43:15.669Z,4.00
2023-03-11T16:45:45.031Z,3.55
2023-03-11T16:48:14.296Z,4.05
2023-03-11T16:50:43.591Z,3.55
2023-03-11T16:53:14.198Z,3.22
2023-03-11T16:55:45.573Z,3.92
2023-03-11T16:58:18.113Z,3.40
2023-03-11T17:00:47.556Z,3.58
2023-03-11T17:03:21.369Z,3.83
2023-03-11T17:05:51.280Z,3.30
2023-03-11T17:08:20.586Z,3.83
2023-03-11T17:10:52.652Z,3.55
2023-03-11T17:13:23.138Z,3.65
2023-03-11T17:15:59.472Z,3.70
2023-03-11T17:18:29.430Z,3.92
2023-03-11T17:20:58.564Z,3.42
2023-03-11T17:23:27.712Z,4.15
2023-03-11T17:25:56.783Z,4.03
2023-03-11T17:28:27.469Z,4.20
2023-03-11T17:30:56.865Z,3.90
2023-03-11T17:33:25.919Z,4.43
2023-03-11T17:36:01.754Z,4.20
2023-03-11T17:38:30.997Z,4.55
2023-03-11T17:41:00.484Z,4.68
2023-03-11T17:43:30.979Z,3.85
2023-03-11T17:46:00.143Z,3.90
2023-03-11T17:48:29.593Z,4.22
2023-03-11T17:50:58.991Z,3.88
2023-03-11T17:53:28.233Z,4.40
2023-03-11T17:55:57.466Z,4.40
2023-03-11T17:58:26.769Z,5.07
2023-03-11T18:01:00.812Z,4.18
2023-03-11T18:03:30.020Z,4.90
2023-03-11T18:06:01.480Z,4.03
2023-03-11T18:08:31.336Z,4.20
2023-03-11T18:11:03.317Z,4.93
2023-03-11T18:13:34.254Z,4.38
2023-03-11T18:16:07.014Z,4.82
2023-03-11T18:18:37.842Z,5.13
2023-03-11T18:21:09.470Z,4.60
2023-03-11T18:23:39.003Z,5.07
2023-03-11T18:26:09.056Z,4.13
2023-03-11T18:28:38.184Z,4.80
2023-03-11T18:31:11.734Z,4.78
2023-03-11T18:33:41.550Z,4.05
2023-03-11T18:36:15.375Z,4.35
2023-03-11T18:38:44.951Z,4.32
2023-03-11T18:41:14.216Z,4.95
2023-03-11T18:43:43.803Z,4.30
2023-03-11T18:46:18.264Z,4.30
2023-03-11T18:48:47.822Z,4.97
2023-03-11T18:51:17.056Z,4.85
2023-03-11T18:53:46.245Z,4.28
2023-03-11T18:56:17.590Z,4.40
2023-03-11T18:58:47.007Z,4.35
2023-03-11T19:01:19.562Z,4.35
2023-03-11T19:03:51.818Z,5.00
2023-03-11T19:06:22.376Z,4.13
2023-03-11T19:08:51.768Z,4.22
2023-03-11T19:11:22.612Z,3.97
2023-03-11T19:13:52.491Z,4.30
2023-03-11T19:16:24.667Z,4.63
2023-03-11T19:18:55.348Z,4.60
2023-03-11T19:21:26.200Z,4.93
2023-03-11T19:23:56.703Z,5.25
2023-03-11T19:26:43.087Z,4.72
2023-03-11T19:29:12.715Z,4.88
2023-03-11T19:31:44.237Z,4.72
2023-03-11T19:34:13.492Z,4.32
2023-03-11T19:36:42.519Z,5.53
2023-03-11T19:39:11.792Z,4.65
2023-03-11T19:41:40.995Z,4.28
2023-03-11T19:44:10.099Z,5.13
2023-03-11T19:46:39.600Z,4.15
2023-03-11T19:49:10.123Z,4.63
2023-03-11T19:51:49.604Z,5.18
2023-03-11T19:54:19.591Z,5.00
2023-03-11T19:56:49.240Z,4.82
2023-03-11T19:59:18.338Z,4.40
2023-03-11T20:01:47.653Z,4.20
2023-03-11T20:04:19.219Z,5.43
2023-03-11T20:06:48.404Z,5.10
2023-03-11T20:09:17.957Z,5.18
2023-03-11T20:11:47.520Z,4.55
2023-03-11T20:14:16.540Z,4.75
2023-03-11T20:16:45.787Z,4.45
2023-03-11T20:19:14.878Z,5.10
2023-03-11T20:21:46.304Z,4.28
2023-03-11T20:24:15.545Z,4.65
2023-03-11T20:26:44.494Z,5.38
2023-03-11T20:29:13.450Z,5.07
2023-03-11T20:31:42.641Z,4.65
2023-03-11T20:34:12.138Z,4.80
2023-03-11T20:36:41.612Z,4.88
2023-03-11T20:39:12.158Z,3.70
2023-03-11T20:41:43.358Z,4.38
2023-03-11T20:44:15.068Z,3.90
2023-03-11T20:46:44.237Z,5.13
2023-03-11T20:49:13.514Z,4.95
2023-03-11T20:51:44.026Z,5.15
2023-03-11T20:54:14.456Z,4.85
2023-03-11T20:56:43.605Z,4.63
2023-03-11T20:59:14.374Z,4.65
2023-03-11T21:01:44.842Z,5.07
2023-03-11T21:04:16.320Z,4.47
2023-03-11T21:06:45.477Z,4.32
2023-03-11T21:09:16.753Z,4.88
2023-03-11T21:11:46.218Z,3.50
2023-03-11T21:14:17.505Z,4.43
2023-03-11T21:16:47.075Z,4.28
2023-03-11T21:19:16.376Z,4.70
2023-03-11T21:21:45.495Z,3.63
2023-03-11T21:24:16.190Z,4.35
2023-03-11T21:26:45.254Z,4.32
2023-03-11T21:29:14.317Z,4.40
2023-03-11T21:31:43.485Z,4.03
2023-03-11T21:34:12.956Z,4.53
2023-03-11T21:36:42.036Z,4.40
2023-03-11T21:39:10.979Z,4.53
2023-03-11T21:41:41.372Z,4.07
2023-03-11T21:44:10.332Z,3.72
2023-03-11T21:46:39.385Z,4.45
2023-03-11T21:49:08.521Z,3.72
2023-03-11T21:51:37.622Z,3.03
2023-03-11T21:54:07.053Z,3.72
2023-03-11T21:56:36.070Z,3.35
2023-03-11T21:59:06.630Z,3.58
2023-03-11T22:01:36.175Z,3.03
2023-03-11T22:04:05.710Z,3.70
2023-03-11T22:06:34.886Z,2.95
2023-03-11T22:09:05.565Z,2.83
2023-03-11T22:11:34.677Z,3.30
2023-03-11T22:14:03.638Z,3.95
2023-03-11T22:16:34.129Z,2.53
2023-03-11T22:19:06.249Z,2.70
2023-03-11T22:21:35.342Z,3.05
2023-03-11T22:24:04.368Z,2.92
2023-03-11T22:26:33.342Z,3.30
2023-03-11T22:29:04.055Z,2.65
2023-03-11T22:31:34.896Z,2.80
2023-03-11T22:34:03.801Z,3.00
2023-03-11T22:36:35.555Z,2.47
2023-03-11T22:39:05.697Z,2.83
2023-03-11T22:41:34.928Z,2.17
2023-03-11T22:44:03.819Z,2.25
2023-03-11T22:46:34.178Z,2.20
2023-03-11T22:49:03.165Z,2.70
2023-03-11T22:51:32.098Z,2.38
2023-03-11T22:54:01.046Z,2.28
2023-03-11T22:56:29.987Z,2.72
2023-03-11T22:58:59.542Z,2.05
2023-03-11T23:01:28.538Z,2.25
2023-03-11T23:03:58.908Z,2.05
2023-03-11T23:06:28.030Z,2.72
2023-03-11T23:08:56.895Z,2.60
2023-03-11T23:11:25.909Z,3.00
2023-03-11T23:13:56.884Z,2.65
2023-03-11T23:16:26.377Z,2.50
2023-03-11T23:18:56.719Z,2.58
2023-03-11T23:21:29.571Z,2.55
2023-03-11T23:23:59.950Z,3.10
2023-03-11T23:26:29.778Z,2.92
2023-03-11T23:28:58.754Z,3.17
2023-03-11T23:31:27.999Z,3.42
2023-03-11T23:33:57.380Z,3.95
2023-03-11T23:36:30.443Z,3.75
2023-03-11T23:38:59.657Z,3.53
2023-03-11T23:41:29.300Z,4.53
2023-03-11T23:43:58.400Z,4.13
2023-03-11T23:46:27.434Z,4.82
2023-03-11T23:48:56.383Z,4.78
2023-03-11T23:51:25.395Z,4.82
2023-03-11T23:53:56.062Z,3.78
2023-03-11T23:56:24.995Z,4.10
2023-03-11T23:58:53.916Z,5.45
